Time;durP1;ratioP1;P1;durP2;ratioP2;P2;SDS_P1;SDS_P2;PMS_P1;PMS_P2;Temp;Humidity;BMP_temperature;BMP_pressure;BME280_temperature;BME280_humidity;BME280_pressure;Samples;Min_cycle;Max_cycle;Signal;HPM_P1;HPM_P2
2022/01/22 05:37:06;;;;;;;6.88;1.95;;;-2.40;99.90;;;;;;5083621;28;20055;-72
2022/01/22 05:39:33;;;;;;;2.60;1.38;;;-2.40;99.90;;;;;;5076762;28;20543;-72
2022/01/22 05:42:01;;;;;;;3.20;1.50;;;-2.50;99.90;;;;;;5076949;28;20085;-72
2022/01/22 05:44:27;;;;;;;4.65;1.83;;;-2.50;99.90;;;;;;5094931;28;20102;-73
2022/01/22 05:46:56;;;;;;;4.05;1.75;;;-2.50;99.90;;;;;;5094822;28;20103;-73
2022/01/22 05:49:24;;;;;;;3.40;1.70;;;-2.50;99.90;;;;;;5094071;28;20058;-73
2022/01/22 05:51:52;;;;;;;5.35;1.90;;;-2.50;99.90;;;;;;5094808;28;20020;-73
2022/01/22 05:59:47;;;;;;;16.70;7.28;;;-2.40;99.90;;;;;;5094687;28;20043;-73
2022/01/22 06:02:15;;;;;;;4.80;2.20;;;-2.50;99.90;;;;;;5094928;28;20024;-73
2022/01/22 06:04:42;;;;;;;6.03;2.10;;;-2.50;99.90;;;;;;5094559;28;20503;-73
2022/01/22 06:07:09;;;;;;;5.30;1.90;;;-2.40;99.90;;;;;;5094666;28;20036;-73
2022/01/22 06:09:39;;;;;;;3.92;2.08;;;-2.40;99.90;;;;;;5094505;28;20028;-73
2022/01/22 06:14:33;;;;;;;3.17;1.90;;;-2.40;99.90;;;;;;5094997;28;20484;-73
2022/01/22 06:16:59;;;;;;;3.75;1.75;;;-2.30;99.90;;;;;;5094239;28;20043;-73
2022/01/22 06:19:26;;;;;;;8.27;1.98;;;-2.40;99.90;;;;;;5094279;28;20035;-73
2022/01/22 06:21:53;;;;;;;5.10;2.00;;;-2.30;99.90;;;;;;5094558;28;20468;-73
2022/01/22 06:24:22;;;;;;;3.90;1.50;;;-2.40;99.90;;;;;;5094569;28;20050;-73
2022/01/22 06:26:49;;;;;;;6.43;1.75;;;-2.30;99.90;;;;;;5094341;28;20369;-73
2022/01/22 06:29:15;;;;;;;4.30;1.73;;;-2.40;99.90;;;;;;5094761;28;20044;-73
2022/01/22 06:31:41;;;;;;;7.55;2.83;;;-2.30;99.90;;;;;;5094142;28;20032;-73
2022/01/22 06:34:08;;;;;;;10.57;3.63;;;-2.30;99.90;;;;;;5094051;28;20456;-73
2022/01/22 06:36:34;;;;;;;8.40;3.28;;;-2.30;99.90;;;;;;5094253;28;20043;-73
2022/01/22 06:39:23;;;;;;;5.55;3.30;;;-2.40;99.90;;;;;;5094202;28;20036;-72
2022/01/22 06:41:46;;;;;;;7.45;2.60;;;-2.30;99.90;;;;;;5093189;28;20050;-73
2022/01/22 06:44:14;;;;;;;9.35;4.00;;;-2.30;99.90;;;;;;5094478;28;20028;-72
2022/01/22 06:46:41;;;;;;;7.78;3.33;;;-2.30;99.90;;;;;;5093929;28;20033;-72
2022/01/22 06:49:07;;;;;;;5.15;2.10;;;-2.40;99.90;;;;;;5094425;28;20028;-71
2022/01/22 06:51:33;;;;;;;7.60;2.00;;;-2.40;99.90;;;;;;5093780;28;20040;-72
2022/01/22 06:54:01;;;;;;;3.03;1.63;;;-2.30;99.90;;;;;;5094098;28;20077;-73
2022/01/22 06:56:29;;;;;;;7.68;2.42;;;-2.30;99.90;;;;;;5093973;28;20108;-72
2022/01/22 06:58:55;;;;;;;20.05;7.15;;;-2.30;99.90;;;;;;5093743;28;20036;-72
2022/01/22 07:01:21;;;;;;;19.95;8.13;;;-2.30;99.90;;;;;;5093927;28;20048;-73
2022/01/22 07:03:46;;;;;;;9.27;3.33;;;-2.30;99.90;;;;;;5094110;28;20379;-73
2022/01/22 07:06:12;;;;;;;8.68;3.25;;;-2.20;99.90;;;;;;5075537;28;20073;-72
2022/01/22 07:08:37;;;;;;;6.78;3.03;;;-2.20;99.90;;;;;;5075589;28;20105;-72
2022/01/22 07:11:03;;;;;;;4.90;2.40;;;-2.20;99.90;;;;;;5093617;28;20495;-72
2022/01/22 07:13:29;;;;;;;5.80;2.92;;;-2.20;99.90;;;;;;5075410;28;20043;-72
2022/01/22 07:15:54;;;;;;;7.65;2.85;;;-2.20;99.90;;;;;;5093385;28;20040;-73
2022/01/22 07:18:20;;;;;;;5.90;2.30;;;-2.20;99.90;;;;;;5075353;28;20065;-72
2022/01/22 07:20:47;;;;;;;3.38;2.20;;;-2.10;99.90;;;;;;5093499;28;20415;-72
2022/01/22 07:23:17;;;;;;;4.28;2.50;;;-2.10;99.90;;;;;;5093749;28;20024;-72
2022/01/22 07:25:44;;;;;;;3.67;1.55;;;-2.10;99.90;;;;;;5093419;28;20020;-70
2022/01/22 07:28:11;;;;;;;3.13;1.60;;;-2.00;99.90;;;;;;5093647;28;20089;-70
2022/01/22 07:30:38;;;;;;;4.80;1.73;;;-2.00;99.90;;;;;;5093708;28;20028;-70
2022/01/22 07:33:04;;;;;;;3.75;1.67;;;-1.90;99.90;;;;;;5093109;28;20040;-73
2022/01/22 07:35:33;;;;;;;3.15;1.67;;;-1.90;99.90;;;;;;5075366;28;20469;-73
2022/01/22 07:38:00;;;;;;;4.32;2.08;;;-1.90;99.90;;;;;;5093337;28;20028;-73
2022/01/22 07:40:26;;;;;;;3.00;1.63;;;-1.90;99.90;;;;;;5093501;28;20107;-72
2022/01/22 07:42:51;;;;;;;9.98;2.17;;;-1.80;99.90;;;;;;5093457;28;20108;-72
2022/01/22 07:45:17;;;;;;;6.38;2.28;;;-1.80;99.90;;;;;;5093637;28;20031;-72
2022/01/22 07:47:43;;;;;;;4.03;2.10;;;-1.80;99.90;;;;;;5093655;28;20499;-72
2022/01/22 07:50:09;;;;;;;6.38;1.48;;;-1.70;99.90;;;;;;5075348;28;20475;-72
2022/01/22 07:52:34;;;;;;;4.07;2.00;;;-1.70;99.90;;;;;;5093753;28;20499;-73
2022/01/22 07:55:01;;;;;;;4.53;2.70;;;-1.70;99.90;;;;;;5093411;28;20103;-73
2022/01/22 07:57:26;;;;;;;4.32;1.95;;;-1.70;99.90;;;;;;5075754;28;20081;-73
2022/01/22 07:59:52;;;;;;;3.17;1.77;;;-1.70;99.90;;;;;;5093214;28;20032;-72
2022/01/22 08:02:18;;;;;;;3.03;1.60;;;-1.60;99.90;;;;;;5093569;28;20032;-72
2022/01/22 08:04:44;;;;;;;2.88;1.58;;;-1.60;99.90;;;;;;5075293;28;20140;-72
2022/01/22 08:07:10;;;;;;;3.35;1.77;;;-1.60;99.90;;;;;;5093128;28;20020;-73
2022/01/22 08:09:36;;;;;;;2.30;1.60;;;-1.60;99.90;;;;;;5093731;28;20032;-73
2022/01/22 08:12:01;;;;;;;3.60;1.88;;;-1.60;99.90;;;;;;5093386;28;20389;-72
2022/01/22 08:14:28;;;;;;;3.95;1.70;;;-1.60;99.90;;;;;;5079001;28;20479;-73
2022/01/22 08:16:53;;;;;;;3.60;2.00;;;-1.60;99.90;;;;;;5097755;28;20035;-72
2022/01/22 08:19:20;;;;;;;3.78;2.10;;;-1.60;99.90;;;;;;5097235;28;20036;-73
2022/01/22 08:21:46;;;;;;;5.30;2.60;;;-1.60;99.90;;;;;;5078887;28;20047;-73
2022/01/22 08:24:13;;;;;;;3.38;2.28;;;-1.60;99.90;;;;;;5079374;28;20024;-73
2022/01/22 08:26:46;;;;;;;5.05;3.00;;;-1.60;99.90;;;;;;5096818;28;20032;-73
2022/01/22 08:29:11;;;;;;;3.05;1.75;;;-1.60;99.90;;;;;;5097171;28;20089;-73
2022/01/22 08:31:47;;;;;;;2.83;1.48;;;-1.50;99.90;;;;;;5097078;28;20476;-73
2022/01/22 08:36:57;;;;;;;3.50;1.80;;;-1.50;99.90;;;;;;5097130;28;20395;-73
2022/01/22 08:39:23;;;;;;;3.03;1.73;;;-1.50;99.90;;;;;;5079415;28;20523;-73
2022/01/22 08:41:49;;;;;;;3.75;1.80;;;-1.50;99.90;;;;;;5096613;28;20054;-73
2022/01/22 08:44:15;;;;;;;3.65;1.90;;;-1.40;99.90;;;;;;5078156;28;20400;-73
2022/01/22 08:46:40;;;;;;;4.13;1.70;;;-1.40;99.90;;;;;;5096872;28;20502;-73
2022/01/22 08:49:08;;;;;;;3.58;1.95;;;-1.40;99.90;;;;;;5078090;28;20043;-73
2022/01/22 08:51:35;;;;;;;8.02;3.13;;;-1.40;99.90;;;;;;5096151;28;20055;-73
2022/01/22 08:54:01;;;;;;;5.07;2.42;;;-1.40;99.90;;;;;;5096384;28;20447;-73
2022/01/22 08:56:28;;;;;;;3.95;2.15;;;-1.40;99.90;;;;;;5077962;28;20036;-73
2022/01/22 08:58:55;;;;;;;5.15;2.50;;;-1.30;99.90;;;;;;5096343;28;20043;-73
2022/01/22 09:01:22;;;;;;;5.50;2.03;;;-1.30;99.90;;;;;;5096174;28;20020;-72
2022/01/22 09:03:49;;;;;;;4.72;2.25;;;-1.40;99.90;;;;;;5077711;28;20032;-73
2022/01/22 09:06:17;;;;;;;4.28;2.17;;;-1.40;99.90;;;;;;5096117;28;20020;-73
2022/01/22 09:08:45;;;;;;;5.63;2.33;;;-1.40;99.90;;;;;;5095825;28;20024;-73
2022/01/22 09:11:10;;;;;;;5.00;2.75;;;-1.30;99.90;;;;;;5095698;28;20032;-73
2022/01/22 09:13:36;;;;;;;4.55;2.13;;;-1.30;99.90;;;;;;5095995;28;20040;-75
2022/01/22 09:16:02;;;;;;;4.80;2.28;;;-1.30;99.90;;;;;;5095949;28;20046;-73
2022/01/22 09:18:28;;;;;;;5.20;2.53;;;-1.30;99.90;;;;;;5095721;28;20032;-73
2022/01/22 09:23:20;;;;;;;4.40;2.00;;;-1.30;99.90;;;;;;5095777;28;20032;-73
2022/01/22 09:25:46;;;;;;;3.92;2.15;;;-1.30;99.90;;;;;;5094919;28;20131;-73
2022/01/22 09:28:13;;;;;;;6.18;3.45;;;-1.30;99.90;;;;;;5095457;28;20035;-73
2022/01/22 09:30:40;;;;;;;6.22;3.08;;;-1.30;99.90;;;;;;5095925;28;20406;-73
2022/01/22 09:33:07;;;;;;;4.50;2.38;;;-1.30;99.90;;;;;;5095338;28;20119;-73
2022/01/22 09:35:33;;;;;;;5.88;2.90;;;-1.20;99.90;;;;;;5095641;28;20036;-73
2022/01/22 09:37:59;;;;;;;6.72;3.95;;;-1.30;99.90;;;;;;5095040;28;20120;-73
2022/01/22 09:40:27;;;;;;;6.65;3.47;;;-1.20;99.90;;;;;;5095141;28;20103;-73
2022/01/22 09:42:53;;;;;;;8.50;4.57;;;-1.20;99.90;;;;;;5095099;28;20032;-73
2022/01/22 09:45:20;;;;;;;24.00;10.98;;;-1.20;99.90;;;;;;5095117;28;20095;-73
2022/01/22 09:47:48;;;;;;;7.30;3.55;;;-1.20;99.90;;;;;;5095048;28;20026;-73
2022/01/22 09:50:16;;;;;;;6.13;3.22;;;-1.10;99.90;;;;;;5095349;28;20055;-73
2022/01/22 09:52:44;;;;;;;8.40;4.32;;;-1.10;99.90;;;;;;5094847;28;20024;-73
2022/01/22 09:55:09;;;;;;;7.00;3.22;;;-1.10;99.90;;;;;;5095186;28;20031;-73
2022/01/22 09:57:36;;;;;;;4.68;2.50;;;-1.00;99.90;;;;;;5094785;28;20024;-73
2022/01/22 10:00:07;;;;;;;4.75;2.30;;;-1.00;99.90;;;;;;5094586;28;20396;-73
2022/01/22 10:02:46;;;;;;;3.03;2.10;;;-0.90;99.90;;;;;;5076487;28;20035;-73
2022/01/22 10:05:29;;;;;;;9.00;3.85;;;-0.90;99.90;;;;;;5094982;28;20357;-73
2022/01/22 10:08:18;;;;;;;14.70;5.47;;;-0.90;99.90;;;;;;5094745;28;20472;-73
2022/01/22 10:10:45;;;;;;;6.95;3.22;;;-0.90;99.90;;;;;;5094629;28;20043;-73
2022/01/22 10:13:11;;;;;;;6.55;2.50;;;-0.90;99.90;;;;;;5094644;28;20024;-73
2022/01/22 10:15:39;;;;;;;9.90;3.92;;;-0.90;99.90;;;;;;5094711;28;20057;-73
2022/01/22 10:18:06;;;;;;;6.68;2.97;;;-0.90;99.90;;;;;;5076151;28;20364;-73
2022/01/22 10:20:41;;;;;;;7.30;3.65;;;-0.80;99.90;;;;;;5094736;28;20028;-73
2022/01/22 10:23:23;;;;;;;3.53;1.80;;;-0.80;99.90;;;;;;5094536;28;20024;-73
2022/01/22 10:25:57;;;;;;;3.53;1.80;;;-0.80;99.90;;;;;;5094419;28;20357;-72
2022/01/22 10:28:24;;;;;;;3.92;2.10;;;-0.80;99.90;;;;;;5094133;28;20482;-72
2022/01/22 10:30:58;;;;;;;4.07;2.03;;;-0.80;99.90;;;;;;5094128;28;20039;-72
2022/01/22 10:33:29;;;;;;;3.85;2.33;;;-0.80;99.90;;;;;;5094514;28;20598;-72
2022/01/22 10:36:11;;;;;;;3.90;2.20;;;-0.80;99.90;;;;;;5094077;28;20048;-72
2022/01/22 10:38:39;;;;;;;4.25;2.15;;;-0.80;99.90;;;;;;5094509;28;20039;-72
2022/01/22 10:41:07;;;;;;;3.88;2.22;;;-0.80;99.90;;;;;;5093940;28;20028;-72
2022/01/22 10:43:34;;;;;;;4.88;2.38;;;-0.70;99.90;;;;;;5093920;28;20024;-72
2022/01/22 10:49:00;;;;;;;3.88;2.30;;;-0.70;99.90;;;;;;5093811;28;20028;-72
2022/01/22 10:51:28;;;;;;;4.10;1.80;;;-0.70;99.90;;;;;;5093778;28;20035;-72
2022/01/22 10:54:00;;;;;;;5.53;2.42;;;-0.60;99.90;;;;;;5075687;28;20399;-72
2022/01/22 10:56:29;;;;;;;6.20;3.60;;;-0.60;99.90;;;;;;5075840;28;20373;-72
2022/01/22 10:59:05;;;;;;;4.70;2.67;;;-0.60;99.90;;;;;;5075573;28;20047;-72
2022/01/22 11:01:47;;;;;;;6.43;3.35;;;-0.50;99.90;;;;;;5094011;28;20099;-72
2022/01/22 11:04:15;;;;;;;5.53;3.25;;;-0.50;99.90;;;;;;5093757;28;20495;-72
2022/01/22 11:06:56;;;;;;;7.05;4.40;;;-0.40;99.90;;;;;;5093541;28;20028;-72
2022/01/22 11:09:23;;;;;;;8.98;4.30;;;-0.40;99.90;;;;;;5093857;28;20043;-72
2022/01/22 11:11:51;;;;;;;10.98;5.50;;;-0.40;99.90;;;;;;5075467;28;20032;-72
2022/01/22 11:14:17;;;;;;;11.18;5.43;;;-0.40;99.90;;;;;;5093560;28;20056;-72
2022/01/22 11:16:45;;;;;;;8.80;5.00;;;-0.40;99.90;;;;;;5093472;28;20035;-72
2022/01/22 11:19:18;;;;;;;11.02;5.05;;;-0.30;99.90;;;;;;5093646;28;20029;-71
2022/01/22 11:21:48;;;;;;;11.60;5.75;;;-0.30;99.90;;;;;;5094516;28;20020;-71
2022/01/22 11:24:20;;;;;;;9.18;5.05;;;-0.30;99.90;;;;;;5093843;28;20028;-71
2022/01/22 11:26:52;;;;;;;9.50;4.85;;;-0.20;99.90;;;;;;5075269;28;20068;-71
2022/01/22 11:29:44;;;;;;;7.30;4.25;;;-0.20;99.90;;;;;;5093682;28;20035;-71
2022/01/22 11:32:12;;;;;;;6.97;4.43;;;-0.20;99.90;;;;;;5055290;28;20040;-71
2022/01/22 11:34:40;;;;;;;8.73;4.68;;;-0.20;99.90;;;;;;5093623;28;20036;-71
2022/01/22 11:37:19;;;;;;;8.90;4.60;;;-0.20;99.90;;;;;;5093639;28;20028;-71
2022/01/22 11:39:45;;;;;;;7.53;3.90;;;-0.10;99.90;;;;;;5075068;28;20077;-72
2022/01/22 11:42:11;;;;;;;6.95;4.60;;;-0.10;99.90;;;;;;5075503;28;20127;-71
2022/01/22 11:44:47;;;;;;;5.82;3.97;;;-0.10;99.90;;;;;;5075219;28;20170;-71
2022/01/22 11:47:16;;;;;;;6.43;4.25;;;-0.10;99.90;;;;;;5093669;28;20024;-71
2022/01/22 11:50:09;;;;;;;7.05;4.20;;;-0.10;99.90;;;;;;5097173;28;20035;-71
2022/01/22 11:52:38;;;;;;;13.90;5.78;;;-0.10;99.90;;;;;;5097235;28;20436;-71
2022/01/22 11:55:14;;;;;;;9.63;5.32;;;-0.10;99.90;;;;;;5097339;28;20201;-71
2022/01/22 11:57:42;;;;;;;10.02;5.22;;;-0.10;99.90;;;;;;5097617;28;20097;-71
2022/01/22 12:00:26;;;;;;;8.90;5.57;;;-0.10;99.90;;;;;;5097759;28;20036;-71
2022/01/22 12:03:22;;;;;;;9.10;5.10;;;-0.10;99.90;;;;;;5097336;28;20027;-71
2022/01/22 12:05:53;;;;;;;10.60;5.82;;;-0.10;99.90;;;;;;5079512;28;20044;-71
2022/01/22 12:08:20;;;;;;;7.78;5.30;;;0.00;99.90;;;;;;5097125;28;20043;-71
2022/01/22 12:16:36;;;;;;;8.98;4.40;;;0.00;99.90;;;;;;5096957;28;20395;-71
2022/01/22 12:19:04;;;;;;;7.57;4.32;;;0.00;99.90;;;;;;5097393;28;20430;-70
2022/01/22 12:21:36;;;;;;;6.15;4.13;;;0.10;99.90;;;;;;5096653;28;20515;-70
2022/01/22 12:24:14;;;;;;;6.13;3.85;;;0.10;99.90;;;;;;5096827;28;20057;-70
2022/01/22 12:26:43;;;;;;;5.97;3.90;;;0.10;99.90;;;;;;5096783;28;20031;-70
2022/01/22 12:29:30;;;;;;;6.60;3.80;;;0.10;99.90;;;;;;5096655;28;20427;-70
2022/01/22 12:32:07;;;;;;;6.53;3.78;;;0.10;99.90;;;;;;5096595;28;20407;-71
2022/01/22 12:34:59;;;;;;;7.03;3.78;;;0.10;99.90;;;;;;5096425;28;20484;-70
2022/01/22 12:37:26;;;;;;;8.15;4.50;;;0.20;99.90;;;;;;5096012;28;20115;-70
2022/01/22 12:39:55;;;;;;;7.05;3.85;;;0.20;99.90;;;;;;5096424;28;20020;-70
2022/01/22 12:42:32;;;;;;;5.50;3.10;;;0.20;99.90;;;;;;5096737;28;20103;-70
2022/01/22 12:45:00;;;;;;;5.22;3.38;;;0.20;99.90;;;;;;5096821;28;20103;-70
2022/01/22 12:47:27;;;;;;;5.97;3.28;;;0.20;99.90;;;;;;5096873;28;20058;-70
2022/01/22 12:50:07;;;;;;;13.77;6.85;;;0.30;99.90;;;;;;5096128;28;20038;-70
2022/01/22 12:52:34;;;;;;;11.27;5.28;;;0.30;99.90;;;;;;5096065;28;20051;-70
2022/01/22 12:55:13;;;;;;;7.90;4.10;;;0.30;99.90;;;;;;5096039;28;20063;-70
2022/01/22 12:57:42;;;;;;;8.07;4.13;;;0.40;99.90;;;;;;5096000;28;20036;-70
2022/01/22 13:00:13;;;;;;;4.78;2.85;;;0.40;99.90;;;;;;5095918;28;20031;-70
2022/01/22 13:02:43;;;;;;;5.13;2.70;;;0.40;99.90;;;;;;5095890;28;20048;-70
2022/01/22 13:05:11;;;;;;;5.15;3.05;;;0.40;99.90;;;;;;5095627;28;20111;-70
2022/01/22 13:07:53;;;;;;;3.67;2.35;;;0.40;99.90;;;;;;5077538;28;20111;-70
2022/01/22 13:10:23;;;;;;;4.70;2.38;;;0.40;99.90;;;;;;5095739;28;20089;-70
2022/01/22 13:12:49;;;;;;;5.95;2.90;;;0.40;99.90;;;;;;5095895;28;20028;-70
2022/01/22 13:15:16;;;;;;;3.92;2.50;;;0.50;99.90;;;;;;5095579;28;20036;-70
2022/01/22 13:17:51;;;;;;;3.35;2.40;;;0.50;99.90;;;;;;5095488;28;20028;-70
2022/01/22 13:20:22;;;;;;;2.70;1.80;;;0.50;99.90;;;;;;5095732;28;20035;-70
2022/01/22 13:22:48;;;;;;;4.00;2.25;;;0.50;99.90;;;;;;5095780;28;20052;-70
2022/01/22 13:25:16;;;;;;;3.50;2.00;;;0.60;99.90;;;;;;5077273;28;20032;-70
2022/01/22 13:27:43;;;;;;;3.88;2.00;;;0.50;99.90;;;;;;5095338;28;20048;-70
2022/01/22 13:30:13;;;;;;;2.75;1.70;;;0.50;99.90;;;;;;5077185;28;20117;-70
2022/01/22 13:32:57;;;;;;;3.38;2.30;;;0.50;99.90;;;;;;5095384;28;20122;-70
2022/01/22 13:35:50;;;;;;;4.15;1.92;;;0.50;99.90;;;;;;5095202;28;20489;-70
2022/01/22 13:38:37;;;;;;;3.80;2.22;;;0.50;99.90;;;;;;5095470;28;20117;-70
2022/01/22 13:49:29;;;;;;;3.53;2.13;;;0.60;99.90;;;;;;5095001;28;20073;-69
2022/01/22 13:51:58;;;;;;;5.30;2.30;;;0.60;99.90;;;;;;5095080;28;20541;-69
2022/01/22 13:54:33;;;;;;;3.58;1.98;;;0.60;99.90;;;;;;5094727;28;20035;-69
2022/01/22 13:57:04;;;;;;;5.18;1.80;;;0.50;99.90;;;;;;5095049;28;20051;-69
2022/01/22 13:59:35;;;;;;;5.25;1.88;;;0.50;99.90;;;;;;5095154;28;20032;-69
2022/01/22 14:05:01;;;;;;;9.73;3.20;;;0.50;99.90;;;;;;5094886;28;20494;-69
2022/01/22 14:07:35;;;;;;;5.95;3.03;;;0.50;99.90;;;;;;5094822;28;20028;-69
2022/01/22 14:10:03;;;;;;;7.03;3.85;;;0.50;99.90;;;;;;5094359;28;20028;-69
2022/01/22 14:12:50;;;;;;;14.98;4.65;;;0.50;99.90;;;;;;5076645;28;20379;-69
2022/01/22 14:15:29;;;;;;;9.07;4.80;;;0.50;99.90;;;;;;5094481;28;20502;-69
2022/01/22 14:18:08;;;;;;;6.95;3.47;;;0.50;99.90;;;;;;5094387;28;20446;-69
2022/01/22 14:20:37;;;;;;;7.13;2.97;;;0.40;99.90;;;;;;5094403;28;20051;-69
2022/01/22 14:23:17;;;;;;;6.20;2.70;;;0.40;99.90;;;;;;5094781;28;20024;-69
2022/01/22 14:25:57;;;;;;;5.40;2.30;;;0.40;99.90;;;;;;5075952;28;20031;-69
2022/01/22 14:28:36;;;;;;;10.55;3.75;;;0.40;99.90;;;;;;5094627;28;20039;-69
2022/01/22 14:31:15;;;;;;;8.70;4.82;;;0.50;99.90;;;;;;5076056;28;20066;-70
2022/01/22 14:33:42;;;;;;;9.13;5.18;;;0.50;99.90;;;;;;5094493;28;20044;-69
2022/01/22 14:36:07;;;;;;;8.45;5.30;;;0.50;99.90;;;;;;5094141;28;20066;-69
2022/01/22 14:38:57;;;;;;;9.38;5.38;;;0.40;99.90;;;;;;5075677;28;20032;-69
2022/01/22 14:46:42;;;;;;;11.00;6.97;;;0.30;99.90;;;;;;5093739;28;20434;-69
2022/01/22 14:49:08;;;;;;;12.23;6.85;;;0.40;99.90;;;;;;5093885;28;20107;-69
2022/01/22 14:51:34;;;;;;;10.50;6.70;;;0.40;99.90;;;;;;5075623;28;20071;-69
2022/01/22 14:53:59;;;;;;;12.32;6.30;;;0.30;99.90;;;;;;5093802;28;20146;-69
2022/01/22 14:56:25;;;;;;;11.70;6.75;;;0.30;99.90;;;;;;5093748;28;20437;-69
2022/01/22 14:58:51;;;;;;;12.98;8.07;;;0.30;99.90;;;;;;5092734;28;20035;-69
2022/01/22 15:01:17;;;;;;;12.75;7.70;;;0.20;99.90;;;;;;5091761;28;20430;-69
2022/01/22 15:03:42;;;;;;;11.85;7.20;;;0.20;99.90;;;;;;5093709;28;20498;-69
2022/01/22 15:06:08;;;;;;;12.40;7.53;;;0.20;99.90;;;;;;5093834;28;20078;-69
2022/01/22 15:08:34;;;;;;;11.60;7.50;;;0.20;99.90;;;;;;5075564;28;20089;-69
2022/01/22 15:10:59;;;;;;;11.55;7.10;;;0.10;99.90;;;;;;5093550;28;20415;-69
2022/01/22 15:13:25;;;;;;;11.77;7.07;;;0.10;99.90;;;;;;5093760;28;20064;-69
2022/01/22 15:15:58;;;;;;;10.88;7.35;;;0.10;99.90;;;;;;5093909;28;20036;-69
2022/01/22 15:18:50;;;;;;;14.05;8.45;;;0.10;99.90;;;;;;5075489;28;20083;-69
2022/01/22 15:21:13;;;;;;;12.77;7.60;;;0.10;99.90;;;;;;5093380;28;20476;-69
2022/01/22 15:23:39;;;;;;;11.57;7.68;;;0.10;99.90;;;;;;5096495;28;20051;-69
2022/01/22 15:26:06;;;;;;;14.45;8.40;;;0.10;99.90;;;;;;5079627;28;20039;-69
2022/01/22 15:28:42;;;;;;;16.42;10.13;;;0.10;99.90;;;;;;5097632;28;20499;-69
2022/01/22 15:31:15;;;;;;;12.35;8.10;;;0.10;99.90;;;;;;5097598;28;20032;-69
2022/01/22 15:33:53;;;;;;;13.27;7.97;;;0.10;99.90;;;;;;5097431;28;20038;-69
2022/01/22 15:36:18;;;;;;;11.27;7.20;;;0.10;99.90;;;;;;5097715;28;20395;-69
2022/01/22 15:38:44;;;;;;;11.82;7.75;;;0.10;99.90;;;;;;5079191;28;20131;-69
2022/01/22 15:41:10;;;;;;;12.13;7.85;;;0.00;99.90;;;;;;5097487;28;20024;-69
2022/01/22 15:43:36;;;;;;;22.83;11.80;;;0.00;99.90;;;;;;5098003;28;20407;-69
2022/01/22 15:46:01;;;;;;;17.60;11.07;;;0.00;99.90;;;;;;5097526;28;20102;-69
2022/01/22 15:48:27;;;;;;;18.45;11.32;;;0.00;99.90;;;;;;5079014;28;20074;-69
2022/01/22 15:50:53;;;;;;;20.35;12.98;;;0.00;99.90;;;;;;5097493;28;20399;-68
2022/01/22 15:53:19;;;;;;;19.95;12.40;;;-0.10;99.90;;;;;;5097063;28;20508;-69
2022/01/22 15:55:49;;;;;;;19.98;11.63;;;0.00;99.90;;;;;;5097003;28;20446;-69
2022/01/22 15:58:15;;;;;;;21.05;12.15;;;-0.10;99.90;;;;;;5097043;28;20134;-69
2022/01/22 16:00:41;;;;;;;20.58;12.40;;;-0.10;99.90;;;;;;5078968;28;20047;-69
2022/01/22 16:03:08;;;;;;;19.75;10.73;;;-0.10;99.90;;;;;;5076947;28;20056;-68
2022/01/22 16:05:34;;;;;;;21.13;11.70;;;-0.10;99.90;;;;;;5076779;28;20548;-69
2022/01/22 16:08:02;;;;;;;19.08;11.10;;;-0.10;99.90;;;;;;5077126;28;20059;-69
2022/01/22 16:10:28;;;;;;;18.70;9.95;;;-0.10;99.90;;;;;;5096777;28;20027;-69
2022/01/22 16:12:54;;;;;;;15.90;8.90;;;-0.10;99.90;;;;;;5096720;28;20401;-69
2022/01/22 16:15:20;;;;;;;15.63;9.15;;;-0.10;99.90;;;;;;5095289;28;20028;-69
2022/01/22 16:17:47;;;;;;;12.20;8.23;;;-0.10;99.90;;;;;;5094480;28;20036;-70
2022/01/22 16:20:13;;;;;;;13.20;8.23;;;-0.10;99.90;;;;;;5093262;28;20111;-70
2022/01/22 16:22:39;;;;;;;13.00;7.68;;;-0.10;99.90;;;;;;5094487;28;20028;-70
2022/01/22 16:25:05;;;;;;;11.95;7.90;;;-0.10;99.90;;;;;;5094393;28;20047;-69
2022/01/22 16:27:33;;;;;;;12.32;7.70;;;-0.10;99.90;;;;;;5094339;28;20064;-69
2022/01/22 16:29:59;;;;;;;10.98;6.75;;;-0.10;99.90;;;;;;5094460;28;20052;-70
2022/01/22 16:32:28;;;;;;;13.00;7.65;;;0.00;99.90;;;;;;5095726;28;20104;-69
2022/01/22 16:34:55;;;;;;;10.65;6.63;;;0.00;99.90;;;;;;5095778;28;20071;-69
2022/01/22 16:37:22;;;;;;;15.32;8.50;;;-0.10;99.90;;;;;;5096100;28;20044;-69
2022/01/22 16:39:49;;;;;;;10.82;7.22;;;0.00;99.90;;;;;;5096200;28;20068;-69
2022/01/22 16:42:16;;;;;;;11.38;6.88;;;-0.10;99.90;;;;;;5096214;28;20060;-69
2022/01/22 16:45:23;;;;;;;13.38;7.90;;;-0.10;99.90;;;;;;5096663;28;20020;-69
2022/01/22 16:57:59;;;;;;;11.07;7.30;;;-0.10;99.90;;;;;;5075905;28;20124;-69
2022/01/22 17:00:33;;;;;;;10.07;6.88;;;-0.10;99.90;;;;;;5075633;28;20119;-69
2022/01/22 17:03:00;;;;;;;10.13;6.13;;;-0.10;99.90;;;;;;5075583;28;20039;-69
2022/01/22 17:05:28;;;;;;;10.13;6.30;;;-0.10;99.90;;;;;;5057579;28;20052;-69
2022/01/22 17:08:14;;;;;;;11.35;6.68;;;-0.10;99.90;;;;;;5075431;28;20446;-69
2022/01/22 17:15:52;;;;;;;12.80;6.30;;;-0.10;99.90;;;;;;5076607;28;20043;-72
2022/01/22 17:18:18;;;;;;;10.18;6.47;;;0.00;99.90;;;;;;5075520;28;20029;-72
2022/01/22 17:20:45;;;;;;;12.57;6.68;;;0.00;99.90;;;;;;5075541;28;20112;-72
2022/01/22 17:23:10;;;;;;;11.65;6.72;;;0.00;99.90;;;;;;5075307;28;20021;-72
2022/01/22 17:25:37;;;;;;;12.70;7.13;;;0.00;99.90;;;;;;5075161;28;20186;-72
2022/01/22 17:28:04;;;;;;;14.02;8.25;;;-0.10;99.90;;;;;;5075023;28;20070;-72
2022/01/22 17:30:31;;;;;;;13.30;8.38;;;-0.10;99.90;;;;;;5056976;28;20438;-72
2022/01/22 17:32:56;;;;;;;15.73;9.27;;;-0.10;99.90;;;;;;5074963;28;20052;-72
2022/01/22 17:35:22;;;;;;;17.70;9.32;;;0.00;99.90;;;;;;5075015;28;20473;-72
2022/01/22 17:37:49;;;;;;;14.50;8.85;;;0.00;99.90;;;;;;5074913;28;20480;-72
2022/01/22 17:40:15;;;;;;;14.77;8.48;;;0.00;99.90;;;;;;5075156;28;20032;-72
2022/01/22 17:42:41;;;;;;;13.95;8.00;;;0.00;99.90;;;;;;5075091;28;20103;-72
2022/01/22 17:45:09;;;;;;;12.30;7.63;;;0.00;99.90;;;;;;5074146;28;20380;-72
2022/01/22 17:47:39;;;;;;;14.93;8.40;;;-0.10;99.90;;;;;;5075035;28;20028;-72
2022/01/22 17:50:08;;;;;;;15.33;8.63;;;-0.10;99.90;;;;;;5075034;28;20397;-72
2022/01/22 17:52:33;;;;;;;16.63;8.60;;;-0.10;99.90;;;;;;5074969;28;20252;-72
2022/01/22 17:54:59;;;;;;;14.88;8.88;;;-0.10;99.90;;;;;;5074715;28;20033;-72
2022/01/22 17:57:25;;;;;;;14.52;7.78;;;-0.10;99.90;;;;;;5074461;28;20032;-72
2022/01/22 17:59:51;;;;;;;13.15;7.90;;;-0.10;99.90;;;;;;5056490;28;20036;-72
2022/01/22 18:02:19;;;;;;;12.25;7.45;;;0.00;99.90;;;;;;5074337;28;20052;-72
2022/01/22 18:04:45;;;;;;;11.70;7.03;;;-0.10;99.90;;;;;;5074747;28;20025;-71
2022/01/22 18:07:11;;;;;;;21.90;11.35;;;-0.10;99.90;;;;;;5074322;28;20028;-72
2022/01/22 18:09:37;;;;;;;25.70;13.38;;;-0.10;99.90;;;;;;5056390;28;20048;-72
2022/01/22 18:12:04;;;;;;;23.92;12.55;;;-0.10;99.90;;;;;;5074287;28;20029;-71
2022/01/22 18:14:30;;;;;;;25.38;12.88;;;-0.10;99.90;;;;;;5056246;28;20036;-72
2022/01/22 18:16:56;;;;;;;25.20;13.50;;;0.00;99.90;;;;;;5074384;28;20036;-72
2022/01/22 18:19:22;;;;;;;21.33;12.38;;;-0.10;99.90;;;;;;5074339;28;20455;-71
2022/01/22 18:21:48;;;;;;;23.58;12.50;;;-0.10;99.90;;;;;;5074021;28;20028;-71
2022/01/22 18:24:15;;;;;;;17.88;9.90;;;0.00;99.90;;;;;;5074578;28;20025;-71
2022/01/22 18:26:41;;;;;;;18.70;9.88;;;0.00;99.90;;;;;;5074043;28;20435;-71
2022/01/22 18:29:11;;;;;;;13.50;8.68;;;0.00;99.90;;;;;;5074316;28;20036;-71
2022/01/22 18:31:38;;;;;;;13.10;7.53;;;0.00;99.90;;;;;;5074088;28;20480;-71
2022/01/22 18:34:05;;;;;;;13.07;7.80;;;0.00;99.90;;;;;;5073800;28;20036;-71
2022/01/22 18:36:35;;;;;;;12.02;8.07;;;0.00;99.90;;;;;;5073815;28;20056;-71
2022/01/22 18:39:04;;;;;;;10.90;7.23;;;0.00;99.90;;;;;;5074079;28;20072;-71
2022/01/22 18:41:30;;;;;;;10.30;6.40;;;0.00;99.90;;;;;;5074109;28;20744;-71
2022/01/22 18:43:58;;;;;;;14.55;7.57;;;0.00;99.90;;;;;;5073917;28;20029;-71
2022/01/22 18:46:24;;;;;;;18.02;8.35;;;-0.10;99.90;;;;;;5073579;28;20346;-71
2022/01/22 18:48:49;;;;;;;17.90;7.70;;;-0.10;99.90;;;;;;5073642;28;20044;-71
2022/01/22 18:51:15;;;;;;;20.95;9.25;;;-0.10;99.90;;;;;;5073517;28;20033;-71
2022/01/22 18:53:41;;;;;;;17.73;8.70;;;-0.10;99.90;;;;;;5073568;28;20025;-71
2022/01/22 18:56:07;;;;;;;22.23;10.23;;;0.00;99.90;;;;;;5055390;28;20037;-71
2022/01/22 18:58:33;;;;;;;19.83;8.88;;;0.00;99.90;;;;;;5073334;28;20395;-71
2022/01/22 19:01:01;;;;;;;19.73;10.13;;;0.00;99.90;;;;;;5073490;28;20075;-71
2022/01/22 19:03:28;;;;;;;18.27;8.85;;;0.00;99.90;;;;;;5073497;28;20023;-71
2022/01/22 19:05:54;;;;;;;16.40;8.10;;;0.00;99.90;;;;;;5055453;28;20035;-71
2022/01/22 19:08:20;;;;;;;14.68;6.82;;;-0.10;99.90;;;;;;5073493;28;20032;-72
2022/01/22 19:10:46;;;;;;;17.10;8.20;;;-0.10;99.90;;;;;;5055341;28;20036;-71
2022/01/22 19:13:12;;;;;;;17.30;8.90;;;-0.10;99.90;;;;;;5073345;28;20028;-72
2022/01/22 19:15:37;;;;;;;14.43;8.15;;;-0.10;99.90;;;;;;5073696;28;20033;-71
2022/01/22 19:18:04;;;;;;;14.70;8.02;;;-0.10;99.90;;;;;;5073301;28;20024;-71
2022/01/22 19:20:33;;;;;;;12.70;7.43;;;-0.10;99.90;;;;;;5073231;28;20039;-71
2022/01/22 19:23:23;;;;;;;12.70;7.20;;;-0.10;99.90;;;;;;5073550;28;20033;-71
2022/01/22 19:26:14;;;;;;;12.32;6.88;;;-0.10;99.90;;;;;;5073459;28;20061;-71